createdAt,value
2022-10-05T00:00:54.052Z,11.59
2022-10-05T00:03:26.239Z,11.60
2022-10-05T00:05:56.605Z,11.61
2022-10-05T00:08:31.614Z,11.60
2022-10-05T00:11:02.221Z,11.60
2022-10-05T00:13:34.410Z,11.61
2022-10-05T00:16:13.879Z,11.60
2022-10-05T00:18:47.460Z,11.60
2022-10-05T00:21:23.602Z,11.59
2022-10-05T00:23:55.460Z,11.58
2022-10-05T00:26:27.522Z,11.57
2022-10-05T00:28:58.280Z,11.55
2022-10-05T00:31:33.967Z,11.52
2022-10-05T00:34:04.392Z,11.51
2022-10-05T00:36:35.280Z,11.48
2022-10-05T00:39:05.821Z,11.47
2022-10-05T00:41:53.197Z,11.46
2022-10-05T00:44:41.066Z,11.45
2022-10-05T00:47:25.415Z,11.44
2022-10-05T00:50:18.947Z,11.44
2022-10-05T00:52:58.441Z,11.43
2022-10-05T00:55:40.231Z,11.42
2022-10-05T00:58:24.081Z,11.42
2022-10-05T01:01:07.179Z,11.42
2022-10-05T01:03:49.812Z,11.42
2022-10-05T01:06:27.515Z,11.43
2022-10-05T01:09:07.163Z,11.42
2022-10-05T01:11:44.778Z,11.44
2022-10-05T01:14:22.866Z,11.45
2022-10-05T01:16:59.427Z,11.46
2022-10-05T01:23:39.128Z,11.46
2022-10-05T01:26:29.874Z,11.45
2022-10-05T01:29:09.618Z,11.44
2022-10-05T01:31:48.910Z,11.43
2022-10-05T01:34:27.965Z,11.42
2022-10-05T01:37:05.558Z,11.41
2022-10-05T01:39:47.490Z,11.41
2022-10-05T01:42:27.510Z,11.41
2022-10-05T01:45:10.316Z,11.41
2022-10-05T01:47:46.367Z,11.42
2022-10-05T01:50:25.488Z,11.43
2022-10-05T01:53:05.477Z,11.43
2022-10-05T01:55:43.892Z,11.44
2022-10-05T01:58:26.902Z,11.45
2022-10-05T02:01:08.265Z,11.46
2022-10-05T02:03:44.364Z,11.46
2022-10-05T02:06:19.555Z,11.47
2022-10-05T02:08:53.551Z,11.48
2022-10-05T02:11:23.846Z,11.49
2022-10-05T02:14:00.204Z,11.50
2022-10-05T02:16:37.369Z,11.50
2022-10-05T02:19:17.036Z,11.51
2022-10-05T02:21:51.943Z,11.52
2022-10-05T02:24:26.066Z,11.53
2022-10-05T02:26:57.656Z,11.54
2022-10-05T02:29:34.287Z,11.55
2022-10-05T02:32:08.515Z,11.56
2022-10-05T02:34:41.203Z,11.56
2022-10-05T02:37:24.917Z,11.57
2022-10-05T02:40:09.306Z,11.57
2022-10-05T02:42:49.904Z,11.57
2022-10-05T02:45:29.474Z,11.58
2022-10-05T02:48:09.638Z,11.58
2022-10-05T02:50:51.240Z,11.58
2022-10-05T02:53:29.856Z,11.58
2022-10-05T02:56:14.455Z,11.58
2022-10-05T02:58:54.556Z,11.58
2022-10-05T03:01:31.511Z,11.58
2022-10-05T03:04:09.966Z,11.58
2022-10-05T03:06:48.147Z,11.58
2022-10-05T03:09:22.682Z,11.57
2022-10-05T03:12:07.279Z,11.59
2022-10-05T03:14:44.026Z,11.60
2022-10-05T03:17:19.064Z,11.60
2022-10-05T03:20:12.929Z,11.60
2022-10-05T03:22:51.717Z,11.61
2022-10-05T03:25:46.566Z,11.62
2022-10-05T03:28:21.562Z,11.62
2022-10-05T03:31:02.024Z,11.63
2022-10-05T03:33:43.555Z,11.64
2022-10-05T03:36:23.978Z,11.64
2022-10-05T03:39:03.551Z,11.64
2022-10-05T03:41:42.046Z,11.64
2022-10-05T03:44:23.759Z,11.63
2022-10-05T03:47:06.068Z,11.63
2022-10-05T03:49:48.888Z,11.62
2022-10-05T03:52:23.879Z,11.61
2022-10-05T03:54:58.930Z,11.59
2022-10-05T03:57:34.164Z,11.58
2022-10-05T04:00:13.694Z,11.57
2022-10-05T04:02:49.296Z,11.56
2022-10-05T04:05:22.414Z,11.55
2022-10-05T04:08:00.167Z,11.54
2022-10-05T04:10:34.335Z,11.53
2022-10-05T04:13:12.919Z,11.50
2022-10-05T04:15:49.138Z,11.52
2022-10-05T04:18:27.243Z,11.52
2022-10-05T04:21:02.775Z,11.51
2022-10-05T04:23:45.672Z,11.51
2022-10-05T04:26:27.897Z,11.49
2022-10-05T04:29:03.170Z,11.48
2022-10-05T04:31:46.070Z,11.49
2022-10-05T04:34:45.864Z,11.48
2022-10-05T04:37:23.130Z,11.47
2022-10-05T04:40:04.137Z,11.46
2022-10-05T04:42:39.615Z,11.46
2022-10-05T04:45:23.215Z,11.46
2022-10-05T04:48:10.204Z,11.46
2022-10-05T04:50:53.241Z,11.46
2022-10-05T04:53:32.463Z,11.46
2022-10-05T04:56:11.016Z,11.46
2022-10-05T04:58:58.465Z,11.46
2022-10-05T05:01:45.094Z,11.47
2022-10-05T05:04:51.485Z,11.48
2022-10-05T05:07:35.835Z,11.49
2022-10-05T05:10:36.404Z,11.49
2022-10-05T05:13:20.642Z,11.51
2022-10-05T05:16:00.250Z,11.52
2022-10-05T05:19:05.299Z,11.52
2022-10-05T05:21:46.551Z,11.53
2022-10-05T05:24:26.308Z,11.53
2022-10-05T05:27:11.247Z,11.53
2022-10-05T05:29:56.021Z,11.52
2022-10-05T05:32:40.329Z,11.51
2022-10-05T05:35:29.863Z,11.50
2022-10-05T05:38:14.321Z,11.49
2022-10-05T05:40:55.686Z,11.48
2022-10-05T05:43:31.860Z,11.48
2022-10-05T05:46:07.468Z,11.47
2022-10-05T05:48:42.175Z,11.46
2022-10-05T05:51:17.692Z,11.45
2022-10-05T05:53:51.683Z,11.44
2022-10-05T05:56:27.647Z,11.43
2022-10-05T05:59:04.042Z,11.42
2022-10-05T06:01:44.142Z,11.42
2022-10-05T06:04:18.425Z,11.43
2022-10-05T06:06:53.125Z,11.44
2022-10-05T06:09:27.039Z,11.46
2022-10-05T06:12:03.188Z,11.48
2022-10-05T06:14:38.340Z,11.49
2022-10-05T06:17:16.134Z,11.53
2022-10-05T06:19:46.343Z,11.55
2022-10-05T06:22:22.297Z,11.56
2022-10-05T06:25:05.837Z,11.58
2022-10-05T06:27:58.739Z,11.61
2022-10-05T06:30:40.286Z,11.63
2022-10-05T06:33:24.111Z,11.69
2022-10-05T06:36:13.883Z,11.73
2022-10-05T06:39:23.634Z,11.79
2022-10-05T06:42:09.240Z,11.88
2022-10-05T06:44:45.940Z,11.95
2022-10-05T06:47:24.657Z,12.02
2022-10-05T06:50:04.448Z,12.09
2022-10-05T06:52:45.964Z,12.17
2022-10-05T06:55:24.383Z,12.22
2022-10-05T06:58:07.202Z,12.28
2022-10-05T07:00:45.469Z,12.32
2022-10-05T07:03:27.726Z,12.35
2022-10-05T07:06:11.787Z,12.37
2022-10-05T07:08:58.366Z,12.41
2022-10-05T07:11:49.057Z,12.43
2022-10-05T07:14:32.012Z,12.45
2022-10-05T07:17:18.314Z,12.46
2022-10-05T07:19:57.032Z,12.47
2022-10-05T07:22:42.898Z,12.48
2022-10-05T07:25:18.583Z,12.48
2022-10-05T07:27:55.038Z,12.50
2022-10-05T07:30:25.591Z,12.52
2022-10-05T07:33:02.771Z,12.57
2022-10-05T07:35:59.561Z,12.63
2022-10-05T07:38:37.295Z,12.70
2022-10-05T07:41:08.827Z,12.79
2022-10-05T07:44:01.951Z,12.87
2022-10-05T07:46:45.012Z,12.95
2022-10-05T07:49:24.444Z,13.04
2022-10-05T07:52:01.497Z,13.13
2022-10-05T07:54:46.289Z,13.21
2022-10-05T07:57:28.028Z,13.27
2022-10-05T08:00:03.839Z,13.34
2022-10-05T08:02:42.954Z,13.40
2022-10-05T08:05:20.073Z,13.47
2022-10-05T08:07:58.265Z,13.54
2022-10-05T08:10:37.801Z,13.60
2022-10-05T08:13:17.580Z,13.64
2022-10-05T08:15:54.031Z,13.68
2022-10-05T08:18:38.835Z,13.68
2022-10-05T08:21:12.126Z,13.70
2022-10-05T08:23:48.774Z,13.70
2022-10-05T08:26:28.086Z,13.71
2022-10-05T08:29:13.800Z,13.71
2022-10-05T08:31:48.827Z,13.71
2022-10-05T08:34:27.512Z,13.71
2022-10-05T08:37:05.110Z,13.72
2022-10-05T08:39:41.109Z,13.73
2022-10-05T08:42:40.610Z,13.76
2022-10-05T08:45:45.402Z,13.78
2022-10-05T08:48:46.313Z,13.82
2022-10-05T08:51:44.038Z,13.86
2022-10-05T08:54:43.098Z,13.94
2022-10-05T08:57:35.668Z,14.02
2022-10-05T09:00:16.800Z,14.09
2022-10-05T09:06:21.733Z,14.25
2022-10-05T09:09:09.543Z,14.32
2022-10-05T09:11:45.186Z,14.42
2022-10-05T09:14:29.366Z,14.53
2022-10-05T09:17:21.011Z,14.63
2022-10-05T09:20:23.830Z,14.70
2022-10-05T09:23:14.693Z,14.79
2022-10-05T09:25:57.364Z,14.88
2022-10-05T09:28:40.322Z,14.96
2022-10-05T09:31:39.062Z,15.04
2022-10-05T09:34:57.894Z,15.14
2022-10-05T09:38:17.514Z,15.24
2022-10-05T09:41:20.882Z,15.29
2022-10-05T09:44:27.493Z,15.42
2022-10-05T09:47:28.854Z,15.51
2022-10-05T09:50:44.380Z,15.59
2022-10-05T09:53:41.815Z,15.67
2022-10-05T09:56:35.246Z,15.75
2022-10-05T09:59:26.093Z,15.84
2022-10-05T10:02:16.849Z,15.92
2022-10-05T10:05:16.074Z,16.01
2022-10-05T10:08:12.836Z,16.10
2022-10-05T10:11:02.600Z,16.18
2022-10-05T10:14:12.965Z,16.24
2022-10-05T10:17:13.927Z,16.28
2022-10-05T10:20:22.808Z,16.30
2022-10-05T10:23:27.756Z,16.31
2022-10-05T10:26:16.255Z,16.33
2022-10-05T10:32:46.792Z,16.36
2022-10-05T10:35:26.957Z,16.36
2022-10-05T10:38:24.580Z,16.37
2022-10-05T10:41:13.873Z,16.39
2022-10-05T10:44:04.240Z,16.41
2022-10-05T10:46:46.841Z,16.45
2022-10-05T10:49:35.185Z,16.49
2022-10-05T10:52:18.800Z,16.54
2022-10-05T10:55:20.238Z,16.60
2022-10-05T10:58:15.899Z,16.65
2022-10-05T11:00:54.732Z,16.68
2022-10-05T11:03:51.805Z,16.69
2022-10-05T11:06:35.642Z,16.70
2022-10-05T11:09:33.192Z,16.71
2022-10-05T11:12:28.960Z,16.71
2022-10-05T11:15:26.598Z,16.73
2022-10-05T11:18:09.946Z,16.71
2022-10-05T11:21:05.222Z,16.69
2022-10-05T11:24:16.378Z,16.68
2022-10-05T11:27:03.995Z,16.68
2022-10-05T11:29:53.318Z,16.68
2022-10-05T11:33:11.901Z,16.67
2022-10-05T11:36:09.731Z,16.66
2022-10-05T11:39:24.029Z,16.66
2022-10-05T11:42:20.421Z,16.64
2022-10-05T11:45:11.551Z,16.64
2022-10-05T11:47:54.358Z,16.66
2022-10-05T11:50:33.981Z,16.68
2022-10-05T11:53:12.085Z,16.70
2022-10-05T11:55:49.792Z,16.71
2022-10-05T11:58:27.486Z,16.71
2022-10-05T12:01:06.809Z,16.71
2022-10-05T12:03:54.309Z,16.73
2022-10-05T12:06:44.722Z,16.74
2022-10-05T12:09:27.924Z,16.75
2022-10-05T12:12:12.326Z,16.77
2022-10-05T12:14:51.906Z,16.77
2022-10-05T12:17:33.645Z,16.78
2022-10-05T12:20:14.125Z,16.80
2022-10-05T12:22:50.919Z,16.86
2022-10-05T12:25:26.638Z,16.90
2022-10-05T12:28:03.552Z,16.95
2022-10-05T12:31:07.566Z,16.99
2022-10-05T12:33:47.102Z,17.02
2022-10-05T12:36:22.422Z,17.04
2022-10-05T12:39:03.520Z,17.06
2022-10-05T12:41:40.465Z,17.09
2022-10-05T12:44:20.167Z,17.13
2022-10-05T12:47:05.203Z,17.13
2022-10-05T12:49:47.472Z,17.15
2022-10-05T12:52:31.571Z,17.15
2022-10-05T12:55:08.308Z,17.14
2022-10-05T12:57:48.190Z,17.15
2022-10-05T13:00:23.188Z,17.17
2022-10-05T13:03:01.142Z,17.19
2022-10-05T13:05:32.754Z,17.20
2022-10-05T13:08:14.513Z,17.22
2022-10-05T13:10:50.429Z,17.23
2022-10-05T13:13:38.830Z,17.21
2022-10-05T13:16:18.928Z,17.19
2022-10-05T13:19:01.887Z,17.15
2022-10-05T13:21:40.931Z,17.10
2022-10-05T13:24:21.340Z,17.05
2022-10-05T13:26:56.262Z,17.04
2022-10-05T13:29:33.118Z,17.00
2022-10-05T13:32:15.284Z,16.97
2022-10-05T13:34:55.508Z,16.93
2022-10-05T13:37:35.327Z,16.90
2022-10-05T13:40:21.752Z,16.87
2022-10-05T13:43:00.459Z,16.84
2022-10-05T13:45:40.552Z,16.82
2022-10-05T13:48:23.131Z,16.82
2022-10-05T13:51:03.898Z,16.80
2022-10-05T13:53:46.402Z,16.80
2022-10-05T13:56:22.278Z,16.80
2022-10-05T13:58:59.620Z,16.79
2022-10-05T14:01:36.422Z,16.79
2022-10-05T14:04:16.069Z,16.78
2022-10-05T14:06:47.428Z,16.78
2022-10-05T14:09:31.422Z,16.78
2022-10-05T14:12:20.630Z,16.79
2022-10-05T14:14:53.928Z,16.77
2022-10-05T14:17:40.241Z,16.81
2022-10-05T14:20:26.963Z,16.77
2022-10-05T14:23:01.419Z,16.79
2022-10-05T14:25:46.542Z,16.78
2022-10-05T14:28:29.678Z,16.75
2022-10-05T14:31:02.201Z,16.75
2022-10-05T14:33:35.000Z,16.74
2022-10-05T14:36:07.667Z,16.72
2022-10-05T14:38:57.772Z,16.71
2022-10-05T14:41:31.690Z,16.65
2022-10-05T14:44:05.601Z,16.67
2022-10-05T14:46:39.788Z,16.65
2022-10-05T14:49:24.218Z,16.63
2022-10-05T14:51:56.159Z,16.61
2022-10-05T14:54:36.115Z,16.60
2022-10-05T14:57:18.844Z,16.58
2022-10-05T15:00:16.496Z,16.55
2022-10-05T15:03:14.955Z,16.53
2022-10-05T15:05:49.820Z,16.50
2022-10-05T15:08:42.538Z,16.48
2022-10-05T15:11:22.908Z,16.46
2022-10-05T15:13:54.629Z,16.43
2022-10-05T15:16:28.915Z,16.42
2022-10-05T15:19:08.395Z,16.39
2022-10-05T15:21:47.513Z,16.39
2022-10-05T15:24:26.373Z,16.37
2022-10-05T15:27:00.395Z,16.35
2022-10-05T15:29:54.960Z,16.33
2022-10-05T15:32:38.066Z,16.28
2022-10-05T15:35:43.773Z,16.24
2022-10-05T15:38:25.788Z,16.21
2022-10-05T15:41:14.918Z,16.19
2022-10-05T15:44:00.116Z,16.17
2022-10-05T15:46:37.209Z,16.15
2022-10-05T15:49:21.399Z,16.14
2022-10-05T15:52:01.326Z,16.13
2022-10-05T15:55:16.542Z,16.10
2022-10-05T15:57:54.395Z,16.07
2022-10-05T16:00:26.521Z,16.05
2022-10-05T16:03:08.681Z,16.02
2022-10-05T16:06:04.499Z,15.99
2022-10-05T16:09:02.626Z,15.96
2022-10-05T16:11:49.249Z,15.91
2022-10-05T16:14:34.489Z,15.87
2022-10-05T16:17:22.101Z,15.83
2022-10-05T16:20:04.130Z,15.80
2022-10-05T16:22:45.088Z,15.77
2022-10-05T16:25:22.519Z,15.75
2022-10-05T16:28:13.611Z,15.73
2022-10-05T16:30:53.519Z,15.68
2022-10-05T16:33:33.805Z,15.64
2022-10-05T16:36:13.650Z,15.60
2022-10-05T16:38:53.711Z,15.55
2022-10-05T16:41:32.632Z,15.52
2022-10-05T16:44:15.364Z,15.46
2022-10-05T16:46:51.830Z,15.43
2022-10-05T16:49:38.175Z,15.39
2022-10-05T16:52:15.350Z,15.34
2022-10-05T16:54:49.666Z,15.30
2022-10-05T16:57:24.240Z,15.26
2022-10-05T17:00:16.601Z,15.23
2022-10-05T17:03:01.165Z,15.19
2022-10-05T17:05:47.962Z,15.15
2022-10-05T17:08:36.781Z,15.11
2022-10-05T17:11:21.274Z,15.07
2022-10-05T17:14:08.513Z,15.05
2022-10-05T17:16:54.601Z,15.01
2022-10-05T17:19:40.133Z,15.00
2022-10-05T17:22:22.682Z,14.98
2022-10-05T17:25:00.057Z,14.98
2022-10-05T17:27:36.497Z,14.98
2022-10-05T17:30:37.599Z,14.99
2022-10-05T17:33:22.427Z,15.00
2022-10-05T17:36:18.382Z,15.01
2022-10-05T17:39:12.229Z,15.01
2022-10-05T17:41:43.058Z,15.03
2022-10-05T17:44:26.450Z,15.05
2022-10-05T17:46:59.243Z,15.07
2022-10-05T17:50:09.365Z,15.07
2022-10-05T17:53:02.543Z,15.08
2022-10-05T17:56:03.020Z,15.09
2022-10-05T17:59:03.424Z,15.10
2022-10-05T18:01:38.977Z,15.11
2022-10-05T18:04:45.016Z,15.12
2022-10-05T18:07:21.910Z,15.11
2022-10-05T18:10:14.401Z,15.11
2022-10-05T18:12:49.035Z,15.12
2022-10-05T18:15:50.604Z,15.12
2022-10-05T18:18:58.604Z,15.15
2022-10-05T18:21:35.865Z,15.15
2022-10-05T18:24:45.274Z,15.15
2022-10-05T18:27:34.247Z,15.14
2022-10-05T18:30:18.969Z,15.14
2022-10-05T18:33:07.538Z,15.14
2022-10-05T18:35:50.383Z,15.12
2022-10-05T18:38:44.487Z,15.11
2022-10-05T18:41:31.609Z,15.11
2022-10-05T18:44:19.425Z,15.11
2022-10-05T18:46:55.667Z,15.11
2022-10-05T18:49:44.060Z,15.09
2022-10-05T18:52:22.010Z,15.06
2022-10-05T18:55:03.990Z,15.03
2022-10-05T18:57:51.147Z,15.00
2022-10-05T19:00:23.786Z,14.96
2022-10-05T19:02:59.032Z,14.94
2022-10-05T19:05:48.661Z,14.92
2022-10-05T19:08:32.810Z,14.89
2022-10-05T19:11:14.337Z,14.87
2022-10-05T19:13:53.923Z,14.85
2022-10-05T19:16:49.249Z,14.85
2022-10-05T19:19:39.649Z,14.84
2022-10-05T19:22:20.199Z,14.82
2022-10-05T19:25:05.440Z,14.83
2022-10-05T19:27:49.799Z,14.82
2022-10-05T19:30:27.143Z,14.82
2022-10-05T19:33:14.759Z,14.82
2022-10-05T19:35:58.203Z,14.83
2022-10-05T19:38:42.457Z,14.82
2022-10-05T19:41:18.599Z,14.80
2022-10-05T19:44:02.240Z,14.79
2022-10-05T19:46:50.477Z,14.78
2022-10-05T19:49:38.207Z,14.76
2022-10-05T19:52:12.043Z,14.75
2022-10-05T19:54:43.452Z,14.73
2022-10-05T19:57:19.025Z,14.72
2022-10-05T19:59:50.029Z,14.71
2022-10-05T20:02:26.070Z,14.70
2022-10-05T20:05:06.417Z,14.70
2022-10-05T20:07:37.027Z,14.69
2022-10-05T20:10:29.280Z,14.68
2022-10-05T20:13:02.554Z,14.69
2022-10-05T20:15:52.106Z,14.69
2022-10-05T20:18:58.583Z,14.68
2022-10-05T20:21:59.870Z,14.67
2022-10-05T20:24:32.074Z,14.67
2022-10-05T20:27:05.828Z,14.67
2022-10-05T20:29:38.315Z,14.66
2022-10-05T20:32:12.119Z,14.69
2022-10-05T20:34:44.419Z,14.71
2022-10-05T20:37:16.420Z,14.72
2022-10-05T20:39:47.347Z,14.72
2022-10-05T20:42:18.224Z,14.73
2022-10-05T20:44:54.328Z,14.70
2022-10-05T20:47:27.747Z,14.73
2022-10-05T20:49:58.076Z,14.73
2022-10-05T20:52:28.724Z,14.74
2022-10-05T20:54:59.333Z,14.76
2022-10-05T20:57:29.678Z,14.78
2022-10-05T21:00:00.144Z,14.78
2022-10-05T21:02:30.463Z,14.83
2022-10-05T21:05:00.944Z,14.85
2022-10-05T21:07:34.061Z,14.87
2022-10-05T21:10:05.695Z,14.89
2022-10-05T21:12:36.416Z,14.93
2022-10-05T21:15:10.840Z,14.97
2022-10-05T21:17:41.190Z,15.02
2022-10-05T21:20:12.945Z,15.06
2022-10-05T21:22:43.997Z,15.09
2022-10-05T21:25:14.853Z,15.12
2022-10-05T21:27:46.359Z,15.15
2022-10-05T21:30:17.304Z,15.17
2022-10-05T21:32:48.012Z,15.20
2022-10-05T21:35:19.082Z,15.22
2022-10-05T21:37:50.172Z,15.24
2022-10-05T21:40:20.964Z,15.25
2022-10-05T21:42:51.592Z,15.27
2022-10-05T21:45:22.229Z,15.26
2022-10-05T21:47:52.984Z,15.27
2022-10-05T21:50:23.705Z,15.26
2022-10-05T21:52:54.727Z,15.25
2022-10-05T21:55:25.131Z,15.25
2022-10-05T21:57:56.800Z,15.25
2022-10-05T22:00:27.136Z,15.25
2022-10-05T22:02:57.599Z,15.25
2022-10-05T22:05:28.668Z,15.25
2022-10-05T22:07:59.185Z,15.25
2022-10-05T22:10:29.522Z,15.24
2022-10-05T22:13:03.633Z,15.22
2022-10-05T22:15:34.208Z,15.21
2022-10-05T22:18:04.798Z,15.19
2022-10-05T22:20:37.037Z,15.18
2022-10-05T22:23:07.654Z,15.17
2022-10-05T22:25:38.576Z,15.17
2022-10-05T22:28:12.244Z,15.16
2022-10-05T22:30:43.856Z,15.15
2022-10-05T22:33:14.658Z,15.15
2022-10-05T22:35:45.266Z,15.15
2022-10-05T22:38:15.654Z,15.15
2022-10-05T22:40:45.960Z,15.15
2022-10-05T22:43:16.382Z,15.16
2022-10-05T22:45:47.136Z,15.16
2022-10-05T22:48:17.569Z,15.18
2022-10-05T22:50:48.863Z,15.20
2022-10-05T22:53:19.438Z,15.23
2022-10-05T22:55:50.076Z,15.24
2022-10-05T22:58:20.993Z,15.26
2022-10-05T23:00:58.378Z,15.28
2022-10-05T23:03:29.237Z,15.30
2022-10-05T23:06:03.133Z,15.31
2022-10-05T23:08:34.279Z,15.32
2022-10-05T23:11:06.043Z,15.32
2022-10-05T23:13:36.424Z,15.31
2022-10-05T23:16:11.604Z,15.29
2022-10-05T23:18:43.127Z,15.27
2022-10-05T23:21:13.687Z,15.25
2022-10-05T23:23:47.313Z,15.22
2022-10-05T23:26:19.210Z,15.19
2022-10-05T23:28:50.264Z,15.17
2022-10-05T23:31:22.681Z,15.17
2022-10-05T23:33:54.017Z,15.15
2022-10-05T23:36:26.472Z,15.11
2022-10-05T23:38:57.185Z,15.16
2022-10-05T23:41:27.615Z,15.16
2022-10-05T23:43:57.943Z,15.17
2022-10-05T23:46:28.351Z,15.19
2022-10-05T23:48:58.855Z,15.20
2022-10-05T23:51:29.558Z,15.23
2022-10-05T23:53:59.870Z,15.26
2022-10-05T23:56:31.197Z,15.31
2022-10-05T23:59:01.580Z,15.35
